createdAt,value
2023-03-02T00:00:35.559Z,4.58
2023-03-02T00:01:53.532Z,5.10
2023-03-02T00:03:04.108Z,4.95
2023-03-02T00:05:32.971Z,4.87
2023-03-02T00:06:42.209Z,4.45
2023-03-02T00:07:51.926Z,4.72
2023-03-02T00:09:02.631Z,5.22
2023-03-02T00:11:22.009Z,4.57
2023-03-02T00:12:34.069Z,5.80
2023-03-02T00:13:43.805Z,4.67
2023-03-02T00:14:52.443Z,5.18
2023-03-02T00:16:01.154Z,4.95
2023-03-02T00:17:13.221Z,5.18
2023-03-02T00:18:24.127Z,5.18
2023-03-02T00:19:33.088Z,5.10
2023-03-02T00:21:57.858Z,4.68
2023-03-02T00:23:07.085Z,5.07
2023-03-02T00:24:16.885Z,5.35
2023-03-02T00:25:26.002Z,5.98
2023-03-02T00:26:36.279Z,5.43
2023-03-02T00:27:45.470Z,6.23
2023-03-02T00:28:53.997Z,6.15
2023-03-02T00:30:04.221Z,5.85
2023-03-02T00:31:13.284Z,5.45
2023-03-02T00:32:22.667Z,6.68
2023-03-02T00:33:32.723Z,6.93
2023-03-02T00:34:42.285Z,6.63
2023-03-02T00:35:51.877Z,6.28
2023-03-02T00:37:01.673Z,4.95
2023-03-02T00:38:11.178Z,5.50
2023-03-02T00:39:20.596Z,6.33
2023-03-02T00:40:30.329Z,6.23
2023-03-02T00:41:39.782Z,7.15
2023-03-02T00:42:48.686Z,6.37
2023-03-02T00:43:58.096Z,6.38
2023-03-02T00:45:07.795Z,7.05
2023-03-02T00:46:21.615Z,6.98
2023-03-02T00:47:32.619Z,7.20
2023-03-02T00:48:42.886Z,6.58
2023-03-02T00:49:52.396Z,5.95
2023-03-02T00:52:17.067Z,5.77
2023-03-02T00:53:26.206Z,6.12
2023-03-02T00:54:35.534Z,6.33
2023-03-02T00:55:53.235Z,5.95
2023-03-02T00:57:03.271Z,5.93
2023-03-02T00:58:13.031Z,6.15
2023-03-02T00:59:26.347Z,5.05
2023-03-02T01:00:38.060Z,6.38
2023-03-02T01:01:50.833Z,6.20
2023-03-02T01:03:00.815Z,6.06
2023-03-02T01:04:09.508Z,5.32
2023-03-02T01:06:33.575Z,6.18
2023-03-02T01:07:43.959Z,5.75
2023-03-02T01:08:52.613Z,5.58
2023-03-02T01:10:01.650Z,6.13
2023-03-02T01:11:20.906Z,6.52
2023-03-02T01:12:29.549Z,5.75
2023-03-02T01:13:37.962Z,7.00
2023-03-02T01:14:50.728Z,6.05
2023-03-02T01:16:03.198Z,6.25
2023-03-02T01:17:13.029Z,6.33
2023-03-02T01:19:39.610Z,5.98
2023-03-02T01:20:49.237Z,5.00
2023-03-02T01:21:59.052Z,5.93
2023-03-02T01:23:08.585Z,5.45
2023-03-02T01:24:19.312Z,5.20
2023-03-02T01:25:28.465Z,5.37
2023-03-02T01:26:38.855Z,4.90
2023-03-02T01:27:48.001Z,5.08
2023-03-02T01:28:57.323Z,5.28
2023-03-02T01:31:42.658Z,5.10
2023-03-02T01:32:51.745Z,5.04
2023-03-02T01:34:00.586Z,5.75
2023-03-02T01:35:09.941Z,5.83
2023-03-02T01:36:19.288Z,5.00
2023-03-02T01:37:29.063Z,4.90
2023-03-02T01:38:38.788Z,4.87
2023-03-02T01:39:47.675Z,4.73
2023-03-02T01:40:57.101Z,4.75
2023-03-02T01:43:23.956Z,5.07
2023-03-02T01:46:09.111Z,5.70
2023-03-02T01:49:00.544Z,4.93
2023-03-02T01:50:20.755Z,5.27
2023-03-02T01:51:34.464Z,5.00
2023-03-02T01:52:45.943Z,4.75
2023-03-02T01:54:05.150Z,4.45
2023-03-02T01:55:17.805Z,4.47
2023-03-02T01:56:30.745Z,5.08
2023-03-02T01:57:45.252Z,4.75
2023-03-02T01:58:59.554Z,5.20
2023-03-02T02:00:15.483Z,4.70
2023-03-02T02:01:25.372Z,4.73
2023-03-02T02:02:36.115Z,4.75
2023-03-02T02:03:49.019Z,4.50
2023-03-02T02:04:59.754Z,5.50
2023-03-02T02:06:29.186Z,5.30
2023-03-02T02:07:39.998Z,4.95
2023-03-02T02:08:49.789Z,5.63
2023-03-02T02:09:59.996Z,4.57
2023-03-02T02:11:09.854Z,4.60
2023-03-02T02:13:37.608Z,4.90
2023-03-02T02:14:48.193Z,4.68
2023-03-02T02:15:57.527Z,4.05
2023-03-02T02:18:21.664Z,5.33
2023-03-02T02:21:06.506Z,5.57
2023-03-02T02:23:36.534Z,5.90
2023-03-02T02:24:49.406Z,5.83
2023-03-02T02:26:06.952Z,6.25
2023-03-02T02:27:15.868Z,6.82
2023-03-02T02:28:47.694Z,6.83
2023-03-02T02:29:58.493Z,6.20
2023-03-02T02:31:17.980Z,6.85
2023-03-02T02:32:33.121Z,6.56
2023-03-02T02:33:45.819Z,5.47
2023-03-02T02:35:02.056Z,5.67
2023-03-02T02:36:18.630Z,5.93
2023-03-02T02:37:47.094Z,5.58
2023-03-02T02:38:59.653Z,5.70
2023-03-02T02:41:32.525Z,6.05
2023-03-02T02:42:46.993Z,6.33
2023-03-02T02:43:57.011Z,5.92
2023-03-02T02:45:10.403Z,6.42
2023-03-02T02:46:20.345Z,5.78
2023-03-02T02:47:30.313Z,5.80
2023-03-02T02:48:40.461Z,6.55
2023-03-02T02:51:12.792Z,6.03
2023-03-02T02:52:26.477Z,6.25
2023-03-02T02:54:58.827Z,6.50
2023-03-02T02:56:09.868Z,5.84
2023-03-02T02:57:21.093Z,6.63
2023-03-02T02:59:59.878Z,4.87
2023-03-02T03:02:30.848Z,4.52
2023-03-02T03:03:44.759Z,4.45
2023-03-02T03:05:00.211Z,6.20
2023-03-02T03:07:30.779Z,4.52
2023-03-02T03:08:48.686Z,4.45
2023-03-02T03:10:15.489Z,4.83
2023-03-02T03:11:28.526Z,4.53
2023-03-02T03:12:40.386Z,5.00
2023-03-02T03:13:53.892Z,4.92
2023-03-02T03:15:04.776Z,4.75
2023-03-02T03:16:17.566Z,5.14
2023-03-02T03:17:26.141Z,5.53
2023-03-02T03:18:39.054Z,6.10
2023-03-02T03:19:48.097Z,5.42
2023-03-02T03:20:58.830Z,5.93
2023-03-02T03:22:11.474Z,5.62
2023-03-02T03:23:21.431Z,5.40
2023-03-02T03:24:33.549Z,4.80
2023-03-02T03:25:43.355Z,4.58
2023-03-02T03:26:57.247Z,5.37
2023-03-02T03:28:07.334Z,5.58
2023-03-02T03:29:22.350Z,5.40
2023-03-02T03:30:31.023Z,6.07
2023-03-02T03:31:41.212Z,6.50
2023-03-02T03:32:51.140Z,4.70
2023-03-02T03:34:01.318Z,5.58
2023-03-02T03:35:12.377Z,5.40
2023-03-02T03:36:22.942Z,5.50
2023-03-02T03:37:32.895Z,6.25
2023-03-02T03:38:43.699Z,5.57
2023-03-02T03:42:18.646Z,5.75
2023-03-02T03:43:31.453Z,5.13
2023-03-02T03:44:41.922Z,6.30
2023-03-02T03:45:52.591Z,5.90
2023-03-02T03:47:02.438Z,5.97
2023-03-02T03:48:11.718Z,6.62
2023-03-02T03:49:21.474Z,6.32
2023-03-02T03:50:31.436Z,6.05
2023-03-02T03:51:41.563Z,5.08
2023-03-02T03:52:51.696Z,5.62
2023-03-02T03:54:05.634Z,4.93
2023-03-02T03:56:35.489Z,5.13
2023-03-02T03:57:45.457Z,7.67
2023-03-02T03:58:57.355Z,4.63
2023-03-02T04:00:09.954Z,5.52
2023-03-02T04:01:22.504Z,3.88
2023-03-02T04:03:41.238Z,4.00
2023-03-02T04:04:51.121Z,4.67
2023-03-02T04:07:16.777Z,4.58
2023-03-02T04:08:27.192Z,3.95
2023-03-02T04:09:37.949Z,4.50
2023-03-02T04:10:50.994Z,4.10
2023-03-02T04:12:00.570Z,4.32
2023-03-02T04:13:11.748Z,3.93
2023-03-02T04:14:23.553Z,4.28
2023-03-02T04:15:33.336Z,4.67
2023-03-02T04:16:43.251Z,4.47
2023-03-02T04:17:53.371Z,4.68
2023-03-02T04:19:07.004Z,4.72
2023-03-02T04:20:19.941Z,4.72
2023-03-02T04:21:30.451Z,5.32
2023-03-02T04:22:39.387Z,4.40
2023-03-02T04:23:48.480Z,4.70
2023-03-02T04:24:57.089Z,4.82
2023-03-02T04:26:06.958Z,4.42
2023-03-02T04:27:17.826Z,4.65
2023-03-02T04:28:26.861Z,4.88
2023-03-02T04:29:38.598Z,4.28
2023-03-02T04:30:49.180Z,5.10
2023-03-02T04:31:59.177Z,4.52
2023-03-02T04:33:10.187Z,5.48
2023-03-02T04:34:19.425Z,5.30
2023-03-02T04:35:29.606Z,5.35
2023-03-02T04:36:40.066Z,5.00
2023-03-02T04:37:51.578Z,4.97
2023-03-02T04:39:00.979Z,4.25
2023-03-02T04:40:13.190Z,4.66
2023-03-02T04:42:39.865Z,5.65
2023-03-02T04:43:49.868Z,5.28
2023-03-02T04:45:00.826Z,6.13
2023-03-02T04:46:14.477Z,5.57
2023-03-02T04:47:24.718Z,5.65
2023-03-02T04:48:34.858Z,4.76
2023-03-02T04:49:44.571Z,6.80
2023-03-02T04:50:53.522Z,7.70
2023-03-02T04:52:02.654Z,7.88
2023-03-02T04:53:12.684Z,7.47
2023-03-02T04:54:26.083Z,7.53
2023-03-02T04:55:36.875Z,6.68
2023-03-02T04:56:48.358Z,7.20
2023-03-02T04:57:57.992Z,6.57
2023-03-02T04:59:08.520Z,6.15
2023-03-02T05:00:20.843Z,6.27
2023-03-02T05:01:29.997Z,5.82
2023-03-02T05:02:40.954Z,6.13
2023-03-02T05:03:51.479Z,5.92
2023-03-02T05:05:01.045Z,5.27
2023-03-02T05:06:10.338Z,5.38
2023-03-02T05:07:19.849Z,5.63
2023-03-02T05:09:44.219Z,5.17
2023-03-02T05:10:53.647Z,5.58
2023-03-02T05:12:03.152Z,4.83
2023-03-02T05:13:11.550Z,6.12
2023-03-02T05:14:20.518Z,6.62
2023-03-02T05:15:38.319Z,5.35
2023-03-02T05:16:49.887Z,4.70
2023-03-02T05:18:00.713Z,4.77
2023-03-02T05:20:23.408Z,4.40
2023-03-02T05:21:32.068Z,4.73
2023-03-02T05:22:40.708Z,5.47
2023-03-02T05:23:50.188Z,4.85
2023-03-02T05:24:58.628Z,4.48
2023-03-02T05:26:08.402Z,4.22
2023-03-02T05:27:17.925Z,5.00
2023-03-02T05:28:28.146Z,4.65
2023-03-02T05:29:38.187Z,4.40
2023-03-02T05:30:47.942Z,4.02
2023-03-02T05:31:57.725Z,4.90
2023-03-02T05:33:07.553Z,5.17
2023-03-02T05:34:18.398Z,5.22
2023-03-02T05:36:36.561Z,5.07
2023-03-02T05:37:45.928Z,14.33
2023-03-02T05:38:56.385Z,5.82
2023-03-02T05:40:06.892Z,5.65
2023-03-02T05:41:17.510Z,5.20
2023-03-02T05:42:26.461Z,4.88
2023-03-02T05:43:36.745Z,5.30
2023-03-02T05:46:00.036Z,5.33
2023-03-02T05:47:09.618Z,5.60
2023-03-02T05:48:19.023Z,4.92
2023-03-02T05:49:27.855Z,5.35
2023-03-02T05:50:38.424Z,5.15
2023-03-02T05:51:46.993Z,4.95
2023-03-02T05:52:58.816Z,5.50
2023-03-02T05:54:07.711Z,5.72
2023-03-02T05:55:17.444Z,4.83
2023-03-02T05:56:26.462Z,5.08
2023-03-02T05:57:35.373Z,5.00
2023-03-02T05:58:44.101Z,10.75
2023-03-02T05:59:52.864Z,6.45
2023-03-02T06:01:04.798Z,6.10
2023-03-02T06:02:14.364Z,6.42
2023-03-02T06:03:23.077Z,6.52
2023-03-02T06:04:32.883Z,7.12
2023-03-02T06:05:41.506Z,7.58
2023-03-02T06:06:50.731Z,8.05
2023-03-02T06:07:59.340Z,8.15
2023-03-02T06:09:08.232Z,6.80
2023-03-02T06:10:18.579Z,6.33
2023-03-02T06:11:28.177Z,6.48
2023-03-02T06:12:37.314Z,6.20
2023-03-02T06:13:46.430Z,5.65
2023-03-02T06:14:56.102Z,6.35
2023-03-02T06:17:20.580Z,6.18
2023-03-02T06:18:29.320Z,7.05
2023-03-02T06:19:38.135Z,6.43
2023-03-02T06:20:47.282Z,6.45
2023-03-02T06:21:56.849Z,7.50
2023-03-02T06:23:06.442Z,8.20
2023-03-02T06:24:15.537Z,7.45
2023-03-02T06:25:25.549Z,8.85
2023-03-02T06:26:34.973Z,8.78
2023-03-02T06:27:45.007Z,8.15
2023-03-02T06:28:54.195Z,7.93
2023-03-02T06:31:20.029Z,8.02
2023-03-02T06:32:32.569Z,9.17
2023-03-02T06:33:41.762Z,8.88
2023-03-02T06:36:06.372Z,7.92
2023-03-02T06:37:16.102Z,7.30
2023-03-02T06:38:25.319Z,7.07
2023-03-02T06:39:35.152Z,6.82
2023-03-02T06:40:44.680Z,6.72
2023-03-02T06:43:10.403Z,6.50
2023-03-02T06:44:18.951Z,6.40
2023-03-02T06:46:45.947Z,6.58
2023-03-02T06:49:04.273Z,5.93
2023-03-02T06:50:13.493Z,6.13
2023-03-02T06:51:22.290Z,5.88
2023-03-02T06:52:31.061Z,5.83
2023-03-02T06:53:39.631Z,5.22
2023-03-02T06:54:49.395Z,6.30
2023-03-02T06:55:57.903Z,5.60
2023-03-02T06:57:08.146Z,5.25
2023-03-02T06:58:17.002Z,6.20
2023-03-02T06:59:26.257Z,5.25
2023-03-02T07:00:34.915Z,5.67
2023-03-02T07:01:43.999Z,5.93
2023-03-02T07:02:53.294Z,6.17
2023-03-02T07:04:02.991Z,5.27
2023-03-02T07:05:12.660Z,5.48
2023-03-02T07:06:21.841Z,5.10
2023-03-02T07:08:46.798Z,5.78
2023-03-02T07:09:56.283Z,5.73
2023-03-02T07:11:10.898Z,5.73
2023-03-02T07:12:19.964Z,5.58
2023-03-02T07:14:45.327Z,6.08
2023-03-02T07:15:55.553Z,6.35
2023-03-02T07:17:07.254Z,6.40
2023-03-02T07:18:16.354Z,5.83
2023-03-02T07:19:25.103Z,5.62
2023-03-02T07:20:34.100Z,5.83
2023-03-02T07:21:42.619Z,5.80
2023-03-02T07:22:53.198Z,6.28
2023-03-02T07:24:01.637Z,6.23
2023-03-02T07:25:10.987Z,6.17
2023-03-02T07:26:20.899Z,5.55
2023-03-02T07:27:29.988Z,5.60
2023-03-02T07:28:41.757Z,4.87
2023-03-02T07:29:50.569Z,4.77
2023-03-02T07:30:59.511Z,5.40
2023-03-02T07:32:12.467Z,5.72
2023-03-02T07:33:21.764Z,5.57
2023-03-02T07:34:31.608Z,5.80
2023-03-02T07:35:40.547Z,5.17
2023-03-02T07:36:49.585Z,5.05
2023-03-02T07:37:58.168Z,4.65
2023-03-02T07:39:07.784Z,5.27
2023-03-02T07:40:17.365Z,5.83
2023-03-02T07:41:25.877Z,5.15
2023-03-02T07:43:49.278Z,5.78
2023-03-02T07:44:59.040Z,6.02
2023-03-02T07:46:08.118Z,5.57
2023-03-02T07:47:16.651Z,5.68
2023-03-02T07:48:27.148Z,5.62
2023-03-02T07:49:36.121Z,5.30
2023-03-02T07:50:44.829Z,6.15
2023-03-02T07:51:54.232Z,7.00
2023-03-02T07:53:02.959Z,5.63
2023-03-02T07:54:11.824Z,7.50
2023-03-02T07:56:35.639Z,6.20
2023-03-02T07:57:44.071Z,6.55
2023-03-02T07:58:52.473Z,6.12
2023-03-02T08:00:02.820Z,5.80
2023-03-02T08:01:14.370Z,5.68
2023-03-02T08:02:25.967Z,5.48
2023-03-02T08:03:36.800Z,5.55
2023-03-02T08:05:53.970Z,4.48
2023-03-02T08:07:02.734Z,5.28
2023-03-02T08:08:11.376Z,5.58
2023-03-02T08:09:20.502Z,6.30
2023-03-02T08:10:30.367Z,5.83
2023-03-02T08:11:39.178Z,5.50
2023-03-02T08:12:48.616Z,5.10
2023-03-02T08:14:02.131Z,5.40
2023-03-02T08:16:26.949Z,4.35
2023-03-02T08:18:50.809Z,4.48
2023-03-02T08:20:00.518Z,4.85
2023-03-02T08:21:15.509Z,4.82
2023-03-02T08:23:40.228Z,4.57
2023-03-02T08:24:48.782Z,4.77
2023-03-02T08:25:57.695Z,4.23
2023-03-02T08:27:06.854Z,4.05
2023-03-02T08:28:15.765Z,4.87
2023-03-02T08:29:24.305Z,4.60
2023-03-02T08:30:34.407Z,4.80
2023-03-02T08:32:57.853Z,5.27
2023-03-02T08:34:07.639Z,5.17
2023-03-02T08:35:16.864Z,4.45
2023-03-02T08:36:25.644Z,3.82
2023-03-02T08:37:36.790Z,4.30
2023-03-02T08:38:46.401Z,3.83
2023-03-02T08:39:57.915Z,3.58
2023-03-02T08:42:24.490Z,3.62
2023-03-02T08:43:34.756Z,4.12
2023-03-02T08:44:43.561Z,4.35
2023-03-02T08:45:58.865Z,3.40
2023-03-02T08:47:08.298Z,3.52
2023-03-02T08:48:16.920Z,3.42
2023-03-02T08:49:25.872Z,3.95
2023-03-02T08:50:34.630Z,4.25
2023-03-02T08:51:46.441Z,3.72
2023-03-02T08:52:54.851Z,4.25
2023-03-02T08:54:05.856Z,4.72
2023-03-02T08:56:27.799Z,4.40
2023-03-02T08:59:13.373Z,4.42
2023-03-02T09:01:38.484Z,4.45
2023-03-02T09:04:04.155Z,4.30
2023-03-02T09:05:13.177Z,4.42
2023-03-02T09:07:36.650Z,4.42
2023-03-02T09:08:46.666Z,4.75
2023-03-02T09:11:11.315Z,4.07
2023-03-02T09:12:21.522Z,4.30
2023-03-02T09:13:30.757Z,4.85
2023-03-02T09:15:55.265Z,6.77
2023-03-02T09:17:05.432Z,6.65
2023-03-02T09:18:14.502Z,8.17
2023-03-02T09:19:24.175Z,6.82
2023-03-02T09:20:34.996Z,6.20
2023-03-02T09:24:07.464Z,4.68
2023-03-02T09:26:34.939Z,4.77
2023-03-02T09:29:00.707Z,5.62
2023-03-02T09:31:27.929Z,4.23
2023-03-02T09:33:45.846Z,4.93
2023-03-02T09:34:55.430Z,5.03
2023-03-02T09:36:11.906Z,4.80
2023-03-02T09:37:20.346Z,4.57
2023-03-02T09:38:29.024Z,5.87
2023-03-02T09:41:20.288Z,4.75
2023-03-02T09:42:49.842Z,5.35
2023-03-02T09:46:12.510Z,6.18
2023-03-02T09:49:14.154Z,6.70
2023-03-02T09:50:36.671Z,7.85
2023-03-02T09:51:49.059Z,7.07
2023-03-02T09:53:16.629Z,5.37
2023-03-02T09:54:27.652Z,5.33
2023-03-02T09:55:37.919Z,4.62
2023-03-02T09:56:50.335Z,4.75
2023-03-02T09:58:02.187Z,4.95
2023-03-02T10:00:39.944Z,4.67
2023-03-02T10:03:19.593Z,5.10
2023-03-02T10:05:54.103Z,4.12
2023-03-02T10:08:27.975Z,4.92
2023-03-02T10:09:37.913Z,4.40
2023-03-02T10:12:41.498Z,5.32
2023-03-02T10:13:59.935Z,4.98
2023-03-02T10:15:13.094Z,5.72
2023-03-02T10:16:38.586Z,5.00
2023-03-02T10:17:57.519Z,4.60
2023-03-02T10:20:44.217Z,4.77
2023-03-02T10:23:46.802Z,5.10
2023-03-02T10:25:18.047Z,4.43
2023-03-02T10:26:48.656Z,3.87
2023-03-02T10:29:33.530Z,3.95
2023-03-02T10:30:45.301Z,3.88
2023-03-02T10:33:22.085Z,4.03
2023-03-02T10:34:31.032Z,3.85
2023-03-02T10:36:58.452Z,3.72
2023-03-02T10:39:28.840Z,5.23
2023-03-02T10:42:07.101Z,5.82
2023-03-02T10:44:57.998Z,5.52
2023-03-02T10:47:28.822Z,5.72
2023-03-02T10:48:56.573Z,4.82
2023-03-02T10:51:37.447Z,4.62
2023-03-02T10:52:59.526Z,4.55
2023-03-02T10:54:14.664Z,4.30
2023-03-02T10:56:44.548Z,5.65
2023-03-02T10:59:44.729Z,5.25
2023-03-02T11:01:01.375Z,4.93
2023-03-02T11:03:37.436Z,4.23
2023-03-02T11:06:20.335Z,4.28
2023-03-02T11:07:30.293Z,4.10
2023-03-02T11:10:00.468Z,3.83
2023-03-02T11:11:24.356Z,4.07
2023-03-02T11:13:52.360Z,3.84
2023-03-02T11:15:29.480Z,3.45
2023-03-02T11:16:38.353Z,4.30
2023-03-02T11:17:50.919Z,4.10
2023-03-02T11:20:26.504Z,4.62
2023-03-02T11:21:50.780Z,5.32
2023-03-02T11:23:09.040Z,5.92
2023-03-02T11:24:33.975Z,4.72
2023-03-02T11:25:49.909Z,4.37
2023-03-02T11:28:36.507Z,4.45
2023-03-02T11:29:54.686Z,4.15
2023-03-02T11:31:08.573Z,4.40
2023-03-02T11:34:07.828Z,4.20
2023-03-02T11:35:28.363Z,4.05
2023-03-02T11:38:26.110Z,3.68
2023-03-02T11:41:15.458Z,4.45
2023-03-02T11:42:34.878Z,4.53
2023-03-02T11:43:43.515Z,5.47
2023-03-02T11:44:53.555Z,4.62
2023-03-02T11:46:13.992Z,4.30
2023-03-02T11:47:19.304Z,4.95
2023-03-02T11:48:34.562Z,4.62
2023-03-02T11:49:56.813Z,4.65
2023-03-02T11:52:34.268Z,5.08
2023-03-02T11:54:02.240Z,4.45
2023-03-02T11:55:19.852Z,4.78
2023-03-02T11:56:34.863Z,4.50
2023-03-02T11:59:08.742Z,4.30
2023-03-02T12:00:31.160Z,4.02
2023-03-02T12:01:41.406Z,4.80
2023-03-02T12:04:34.097Z,4.65
2023-03-02T12:08:24.168Z,4.97
2023-03-02T12:09:37.060Z,4.72
2023-03-02T12:11:01.039Z,4.62
2023-03-02T12:12:14.458Z,4.78
2023-03-02T12:13:34.489Z,4.08
2023-03-02T12:14:44.565Z,3.90
2023-03-02T12:15:55.168Z,4.68
2023-03-02T12:18:24.892Z,3.88
2023-03-02T12:22:33.108Z,4.60
2023-03-02T12:23:54.656Z,4.22
2023-03-02T12:25:22.399Z,3.78
2023-03-02T12:27:53.316Z,4.67
2023-03-02T12:29:13.310Z,4.45
2023-03-02T12:30:26.651Z,4.60
2023-03-02T12:31:48.126Z,4.73
2023-03-02T12:34:39.013Z,4.55
2023-03-02T12:35:50.842Z,4.60
2023-03-02T12:37:03.469Z,4.67
2023-03-02T12:38:34.846Z,4.50
2023-03-02T12:41:38.546Z,5.00
2023-03-02T12:44:21.622Z,4.92
2023-03-02T12:47:03.782Z,5.80
2023-03-02T12:48:22.673Z,5.93
2023-03-02T12:49:52.438Z,5.85
2023-03-02T12:51:04.859Z,5.33
2023-03-02T12:52:32.386Z,6.13
2023-03-02T12:53:40.989Z,6.72
2023-03-02T12:55:05.864Z,7.28
2023-03-02T12:57:52.038Z,7.25
2023-03-02T13:00:12.955Z,5.73
2023-03-02T13:01:25.368Z,5.10
2023-03-02T13:02:36.793Z,6.50
2023-03-02T13:03:47.660Z,7.08
2023-03-02T13:05:02.491Z,6.45
2023-03-02T13:06:18.301Z,5.72
2023-03-02T13:07:31.544Z,5.57
2023-03-02T13:08:43.782Z,4.83
2023-03-02T13:09:56.880Z,4.65
2023-03-02T13:11:07.018Z,3.97
2023-03-02T13:12:16.652Z,3.92
2023-03-02T13:13:39.510Z,3.70
2023-03-02T13:14:54.770Z,4.27
2023-03-02T13:16:07.806Z,3.55
2023-03-02T13:18:43.410Z,3.58
2023-03-02T13:19:52.822Z,3.73
2023-03-02T13:22:21.566Z,3.85
2023-03-02T13:23:32.932Z,5.13
2023-03-02T13:24:51.176Z,4.20
2023-03-02T13:26:04.657Z,5.15
2023-03-02T13:27:21.754Z,6.33
2023-03-02T13:28:37.382Z,6.93
2023-03-02T13:29:46.633Z,7.62
2023-03-02T13:32:28.151Z,6.17
2023-03-02T13:34:59.049Z,4.95
2023-03-02T13:37:41.593Z,4.60
2023-03-02T13:38:53.786Z,5.98
2023-03-02T13:40:06.732Z,7.17
2023-03-02T13:41:29.336Z,6.00
2023-03-02T13:42:41.159Z,5.63
2023-03-02T13:43:50.414Z,5.07
2023-03-02T13:45:20.529Z,5.52
2023-03-02T13:47:51.158Z,6.10
2023-03-02T13:49:10.090Z,6.47
2023-03-02T13:50:22.748Z,6.50
2023-03-02T13:51:44.095Z,6.25
2023-03-02T13:52:57.125Z,4.95
2023-03-02T13:55:41.158Z,5.45
2023-03-02T13:58:11.845Z,5.65
2023-03-02T13:59:23.045Z,5.57
2023-03-02T14:00:35.576Z,5.02
2023-03-02T14:01:44.852Z,4.25
2023-03-02T14:02:53.427Z,5.12
2023-03-02T14:04:03.763Z,5.10
2023-03-02T14:06:37.159Z,5.30
2023-03-02T14:07:46.730Z,5.10
2023-03-02T14:08:55.400Z,5.30
2023-03-02T14:10:05.880Z,5.45
2023-03-02T14:11:17.050Z,5.00
2023-03-02T14:12:28.854Z,4.40
2023-03-02T14:13:48.177Z,5.10
2023-03-02T14:15:00.235Z,4.55
2023-03-02T14:16:18.466Z,4.20
2023-03-02T14:17:27.665Z,4.27
2023-03-02T14:18:43.476Z,4.18
2023-03-02T14:19:53.277Z,4.12
2023-03-02T14:21:02.602Z,3.85
2023-03-02T14:22:12.437Z,3.70
2023-03-02T14:23:21.594Z,3.90
2023-03-02T14:25:46.768Z,4.85
2023-03-02T14:26:55.527Z,4.35
2023-03-02T14:28:05.750Z,4.58
2023-03-02T14:29:24.766Z,4.65
2023-03-02T14:30:34.192Z,5.28
2023-03-02T14:31:44.068Z,4.82
2023-03-02T14:32:52.862Z,3.28
2023-03-02T14:34:02.705Z,3.98
2023-03-02T14:35:13.866Z,4.85
2023-03-02T14:36:29.523Z,4.42
2023-03-02T14:37:41.555Z,5.08
2023-03-02T14:38:50.222Z,5.43
2023-03-02T14:39:59.399Z,5.00
2023-03-02T14:42:30.253Z,7.97
2023-03-02T14:43:39.049Z,5.75
2023-03-02T14:44:51.529Z,7.00
2023-03-02T14:46:01.214Z,6.48
2023-03-02T14:47:10.383Z,6.08
2023-03-02T14:48:19.349Z,6.00
2023-03-02T14:49:28.570Z,5.35
2023-03-02T14:50:41.343Z,5.53
2023-03-02T14:52:27.971Z,4.83
2023-03-02T14:56:24.468Z,4.38
2023-03-02T14:57:36.314Z,5.12
2023-03-02T15:00:01.026Z,4.27
2023-03-02T15:01:11.853Z,4.65
2023-03-02T15:04:47.408Z,4.70
2023-03-02T15:06:01.266Z,4.65
2023-03-02T15:08:27.807Z,4.30
2023-03-02T15:09:37.665Z,4.25
2023-03-02T15:10:49.202Z,4.25
2023-03-02T15:11:57.879Z,4.48
2023-03-02T15:13:07.230Z,5.17
2023-03-02T15:14:16.394Z,4.92
2023-03-02T15:15:26.918Z,4.30
2023-03-02T15:16:36.591Z,4.48
2023-03-02T15:17:45.788Z,5.32
2023-03-02T15:18:56.383Z,4.55
2023-03-02T15:20:07.585Z,4.92
2023-03-02T15:21:22.113Z,5.10
2023-03-02T15:22:31.513Z,4.65
2023-03-02T15:23:40.176Z,5.35
2023-03-02T15:26:04.169Z,7.00
2023-03-02T15:27:12.641Z,5.70
2023-03-02T15:29:36.105Z,5.03
2023-03-02T15:32:02.653Z,6.68
2023-03-02T15:33:11.476Z,5.93
2023-03-02T15:34:20.291Z,5.88
2023-03-02T15:35:29.756Z,5.90
2023-03-02T15:36:39.392Z,6.22
2023-03-02T15:37:48.454Z,6.08
2023-03-02T15:38:57.468Z,5.83
2023-03-02T15:41:25.429Z,6.33
2023-03-02T15:42:34.186Z,6.37
2023-03-02T15:43:45.312Z,6.13
2023-03-02T15:44:54.501Z,5.90
2023-03-02T15:46:06.369Z,6.15
2023-03-02T15:47:15.329Z,6.92
2023-03-02T15:48:24.981Z,7.73
2023-03-02T15:49:33.676Z,7.05
2023-03-02T15:50:42.797Z,6.32
2023-03-02T15:51:52.512Z,7.03
2023-03-02T15:53:01.039Z,6.97
2023-03-02T15:54:11.212Z,7.05
2023-03-02T15:55:19.889Z,6.85
2023-03-02T15:56:35.775Z,7.15
2023-03-02T15:57:41.136Z,6.30
2023-03-02T15:58:50.223Z,6.15
2023-03-02T15:59:59.496Z,6.67
2023-03-02T16:01:11.013Z,13.48
2023-03-02T16:02:19.653Z,11.30
2023-03-02T16:03:29.387Z,8.08
2023-03-02T16:04:38.595Z,6.90
2023-03-02T16:05:48.092Z,7.70
2023-03-02T16:06:59.273Z,7.00
2023-03-02T16:08:08.483Z,7.55
2023-03-02T16:09:18.477Z,7.58
2023-03-02T16:10:30.043Z,7.88
2023-03-02T16:11:39.048Z,8.15
2023-03-02T16:12:48.529Z,7.70
2023-03-02T16:15:12.788Z,8.00
2023-03-02T16:16:23.259Z,8.40
2023-03-02T16:17:32.133Z,8.35
2023-03-02T16:18:42.903Z,9.00
2023-03-02T16:19:51.795Z,8.85
2023-03-02T16:21:02.741Z,10.40
2023-03-02T16:22:11.379Z,9.40
2023-03-02T16:23:20.685Z,10.22
2023-03-02T16:24:30.586Z,10.20
2023-03-02T16:25:43.173Z,10.55
2023-03-02T16:26:52.763Z,11.38
2023-03-02T16:28:03.994Z,9.75
2023-03-02T16:29:13.862Z,9.25
2023-03-02T16:30:23.497Z,9.07
2023-03-02T16:31:34.664Z,9.43
2023-03-02T16:32:43.668Z,8.30
2023-03-02T16:33:55.584Z,8.52
2023-03-02T16:35:05.621Z,8.03
2023-03-02T16:37:26.944Z,7.20
2023-03-02T16:38:38.282Z,7.98
2023-03-02T17:41:47.761Z,8.53
2023-03-02T17:42:57.805Z,7.80
2023-03-02T17:45:25.481Z,7.40
2023-03-02T17:46:34.402Z,7.00
2023-03-02T17:49:00.686Z,7.53
2023-03-02T17:50:11.814Z,7.35
2023-03-02T17:51:23.572Z,7.43
2023-03-02T17:52:32.810Z,7.22
2023-03-02T17:54:59.541Z,7.52
2023-03-02T17:56:09.188Z,7.58
2023-03-02T17:57:19.736Z,7.45
2023-03-02T17:59:45.122Z,7.48
2023-03-02T18:00:54.357Z,8.13
2023-03-02T18:02:03.101Z,7.58
2023-03-02T18:03:12.990Z,7.33
2023-03-02T18:04:22.462Z,7.58
2023-03-02T18:05:31.198Z,7.27
2023-03-02T18:06:41.043Z,7.45
2023-03-02T18:07:51.979Z,7.03
2023-03-02T18:10:16.908Z,6.88
2023-03-02T18:13:01.139Z,6.83
2023-03-02T18:14:16.765Z,6.85
2023-03-02T18:15:27.282Z,7.42
2023-03-02T18:16:36.107Z,7.03
2023-03-02T18:17:44.933Z,6.88
2023-03-02T18:18:54.195Z,7.67
2023-03-02T18:21:20.523Z,7.25
2023-03-02T18:23:49.505Z,7.00
2023-03-02T18:26:15.264Z,7.50
2023-03-02T18:27:24.765Z,7.32
2023-03-02T18:28:34.729Z,7.43
2023-03-02T18:29:44.307Z,7.83
2023-03-02T18:30:53.120Z,7.57
2023-03-02T18:33:16.775Z,7.15
2023-03-02T18:34:25.475Z,7.90
2023-03-02T18:35:35.081Z,7.37
2023-03-02T18:36:43.710Z,6.85
2023-03-02T18:37:52.453Z,7.58
2023-03-02T18:40:18.713Z,9.97
2023-03-02T18:41:27.696Z,8.52
2023-03-02T18:42:36.993Z,8.63
2023-03-02T18:43:48.638Z,7.35
2023-03-02T18:47:36.072Z,8.18
2023-03-02T18:48:44.600Z,9.27
2023-03-02T18:49:53.534Z,8.93
2023-03-02T18:52:18.622Z,8.28
2023-03-02T18:54:46.726Z,9.30
2023-03-02T18:55:56.254Z,7.30
2023-03-02T18:57:10.382Z,8.22
2023-03-02T18:58:23.427Z,9.78
2023-03-02T19:00:48.254Z,8.45
2023-03-02T19:01:56.946Z,8.50
2023-03-02T19:04:26.011Z,7.95
2023-03-02T19:05:35.214Z,8.17
2023-03-02T19:06:44.102Z,7.22
2023-03-02T19:09:12.010Z,8.02
2023-03-02T19:10:23.001Z,8.15
2023-03-02T19:11:31.618Z,7.52
2023-03-02T19:12:41.077Z,7.92
2023-03-02T19:13:50.223Z,7.65
2023-03-02T19:14:58.738Z,8.13
2023-03-02T19:16:08.093Z,8.88
2023-03-02T19:18:37.239Z,9.17
2023-03-02T19:19:45.996Z,8.55
2023-03-02T19:20:55.224Z,8.12
2023-03-02T19:22:09.432Z,8.95
2023-03-02T19:23:19.392Z,8.95
2023-03-02T19:24:28.261Z,8.65
2023-03-02T19:25:39.138Z,8.83
2023-03-02T19:26:48.139Z,9.25
2023-03-02T19:27:58.724Z,8.70
2023-03-02T19:29:07.615Z,9.15
2023-03-02T19:30:20.242Z,9.40
2023-03-02T19:31:31.230Z,9.33
2023-03-02T19:33:48.653Z,9.68
2023-03-02T19:34:59.538Z,10.00
2023-03-02T19:36:09.532Z,10.80
2023-03-02T19:37:19.408Z,9.27
2023-03-02T19:38:29.245Z,9.85
2023-03-02T19:39:38.410Z,11.00
2023-03-02T19:42:02.256Z,10.98
2023-03-02T19:43:11.185Z,13.50
2023-03-02T19:44:20.116Z,13.53
2023-03-02T19:45:31.885Z,14.02
2023-03-02T19:46:41.452Z,12.90
2023-03-02T19:47:51.982Z,13.40
2023-03-02T19:49:00.705Z,13.78
2023-03-02T19:50:12.260Z,12.93
2023-03-02T19:51:21.491Z,12.33
2023-03-02T19:52:30.213Z,11.63
2023-03-02T19:53:40.634Z,11.45
2023-03-02T19:54:51.437Z,11.30
2023-03-02T19:57:11.365Z,10.70
2023-03-02T19:58:22.467Z,10.35
2023-03-02T19:59:32.061Z,10.47
2023-03-02T20:00:41.259Z,9.97
2023-03-02T20:01:52.165Z,10.75
2023-03-02T20:03:00.813Z,9.53
2023-03-02T20:04:10.817Z,10.35
2023-03-02T20:05:19.636Z,10.13
2023-03-02T20:06:32.937Z,9.77
2023-03-02T20:07:42.966Z,9.38
2023-03-02T20:08:53.290Z,9.07
2023-03-02T20:10:04.294Z,9.10
2023-03-02T20:12:23.644Z,8.65